createdAt,value
2023-10-20T00:00:52.220Z,74.00
2023-10-20T00:03:19.219Z,73.70
2023-10-20T00:05:46.173Z,73.57
2023-10-20T00:08:13.075Z,73.97
2023-10-20T00:10:40.670Z,74.03
2023-10-20T00:13:08.033Z,73.84
2023-10-20T00:15:35.989Z,73.93
2023-10-20T00:18:04.569Z,73.91
2023-10-20T00:20:31.666Z,73.97
2023-10-20T00:22:58.624Z,73.90
2023-10-20T00:25:25.554Z,74.18
2023-10-20T00:27:52.489Z,73.60
2023-10-20T00:30:19.421Z,73.85
2023-10-20T00:32:46.819Z,73.46
2023-10-20T00:35:15.018Z,73.49
2023-10-20T00:37:42.551Z,73.18
2023-10-20T00:40:12.079Z,73.27
2023-10-20T00:42:39.742Z,73.17
2023-10-20T00:45:09.547Z,72.81
2023-10-20T00:47:39.399Z,72.87
2023-10-20T00:50:13.158Z,72.47
2023-10-20T00:52:51.040Z,71.90
2023-10-20T00:55:20.515Z,71.86
2023-10-20T00:57:47.903Z,71.91
2023-10-20T01:00:15.659Z,72.20
2023-10-20T01:02:42.719Z,72.43
2023-10-20T01:05:11.293Z,72.23
2023-10-20T01:07:38.315Z,72.20
2023-10-20T01:10:06.366Z,72.52
2023-10-20T01:12:34.296Z,72.70
2023-10-20T01:15:01.690Z,72.92
2023-10-20T01:17:29.843Z,73.04
2023-10-20T01:19:57.338Z,72.79
2023-10-20T01:22:24.351Z,73.65
2023-10-20T01:24:51.333Z,73.66
2023-10-20T01:27:18.555Z,73.40
2023-10-20T01:29:45.414Z,72.93
2023-10-20T01:32:12.341Z,72.37
2023-10-20T01:34:39.270Z,72.09
2023-10-20T01:37:06.508Z,72.33
2023-10-20T01:39:33.323Z,72.28
2023-10-20T01:42:00.162Z,71.99
2023-10-20T01:44:27.031Z,72.08
2023-10-20T01:46:54.025Z,71.87
2023-10-20T01:49:20.967Z,71.82
2023-10-20T01:51:47.968Z,71.69
2023-10-20T01:54:14.885Z,71.64
2023-10-20T01:56:41.738Z,71.56
2023-10-20T01:59:08.646Z,72.15
2023-10-20T02:01:35.570Z,72.48
2023-10-20T02:04:02.830Z,71.89
2023-10-20T02:06:29.759Z,71.96
2023-10-20T02:08:56.797Z,71.78
2023-10-20T02:11:23.653Z,71.53
2023-10-20T02:13:50.557Z,71.95
2023-10-20T02:16:17.487Z,71.86
2023-10-20T02:18:44.403Z,72.31
2023-10-20T02:21:11.320Z,72.32
2023-10-20T02:23:41.878Z,72.24
2023-10-20T02:26:10.104Z,72.23
2023-10-20T02:28:37.871Z,71.77
2023-10-20T02:31:19.017Z,71.68
2023-10-20T02:33:46.831Z,71.32
2023-10-20T02:36:21.663Z,71.53
2023-10-20T02:38:53.021Z,71.48
2023-10-20T02:41:20.656Z,71.06
2023-10-20T02:43:47.924Z,71.09
2023-10-20T02:46:14.886Z,71.39
2023-10-20T02:48:41.796Z,71.33
2023-10-20T02:51:13.926Z,71.55
2023-10-20T02:53:42.079Z,71.62
2023-10-20T02:56:20.238Z,71.45
2023-10-20T02:58:48.409Z,71.07
2023-10-20T03:01:18.956Z,72.04
2023-10-20T03:03:46.659Z,72.35
2023-10-20T03:06:13.871Z,73.27
2023-10-20T03:08:41.620Z,72.58
2023-10-20T03:11:10.078Z,72.58
2023-10-20T03:13:37.190Z,73.08
2023-10-20T03:16:04.112Z,73.13
2023-10-20T03:18:31.120Z,72.71
2023-10-20T03:21:02.481Z,71.96
2023-10-20T03:23:30.305Z,72.44
2023-10-20T03:25:57.437Z,72.12
2023-10-20T03:28:24.286Z,72.30
2023-10-20T03:30:52.702Z,72.48
2023-10-20T03:33:19.953Z,73.15
2023-10-20T03:35:47.439Z,72.60
2023-10-20T03:38:15.374Z,72.54
2023-10-20T03:40:43.037Z,72.39
2023-10-20T03:43:11.444Z,72.31
2023-10-20T03:45:43.475Z,72.81
2023-10-20T03:48:11.067Z,72.55
2023-10-20T03:50:43.063Z,72.28
2023-10-20T03:53:13.228Z,72.83
2023-10-20T03:55:40.183Z,72.41
2023-10-20T03:58:07.035Z,72.31
2023-10-20T04:00:37.917Z,72.08
2023-10-20T04:03:05.077Z,71.60
2023-10-20T04:05:32.816Z,72.29
2023-10-20T04:07:59.996Z,72.54
2023-10-20T04:10:27.497Z,72.22
2023-10-20T04:12:55.124Z,72.23
2023-10-20T04:15:26.897Z,72.80
2023-10-20T04:17:54.142Z,72.86
2023-10-20T04:20:22.565Z,73.21
2023-10-20T04:22:52.618Z,72.46
2023-10-20T04:25:21.743Z,72.65
2023-10-20T04:27:58.732Z,73.37
2023-10-20T04:30:44.158Z,73.41
2023-10-20T04:33:37.397Z,73.22
2023-10-20T04:36:23.033Z,73.11
2023-10-20T04:39:08.537Z,72.91
2023-10-20T04:42:07.712Z,72.73
2023-10-20T04:44:49.727Z,72.47
2023-10-20T04:47:26.303Z,72.14
2023-10-20T04:50:19.983Z,72.32
2023-10-20T04:52:52.906Z,72.20
2023-10-20T04:55:19.759Z,72.31
2023-10-20T04:58:05.228Z,72.32
2023-10-20T05:00:36.613Z,71.76
2023-10-20T05:03:03.670Z,71.93
2023-10-20T05:05:43.524Z,72.57
2023-10-20T05:08:13.407Z,72.72
2023-10-20T05:10:42.998Z,72.86
2023-10-20T05:13:13.473Z,74.01
2023-10-20T05:15:41.482Z,73.66
2023-10-20T05:18:16.332Z,73.54
2023-10-20T05:20:44.100Z,73.43
2023-10-20T05:23:15.927Z,73.08
2023-10-20T05:25:50.267Z,73.10
2023-10-20T05:28:17.795Z,72.43
2023-10-20T05:30:46.470Z,73.33
2023-10-20T05:33:14.273Z,73.13
2023-10-20T05:35:41.965Z,72.95
2023-10-20T05:38:09.763Z,73.15
2023-10-20T05:40:37.725Z,72.34
2023-10-20T05:43:06.714Z,72.64
2023-10-20T05:45:42.718Z,72.14
2023-10-20T05:48:10.031Z,72.38
2023-10-20T05:50:39.278Z,72.96
2023-10-20T05:53:07.255Z,72.92
2023-10-20T05:55:34.380Z,72.91
2023-10-20T05:58:02.182Z,72.92
2023-10-20T06:00:29.259Z,72.94
2023-10-20T06:02:56.517Z,73.54
2023-10-20T06:05:24.128Z,73.73
2023-10-20T06:07:51.127Z,73.34
2023-10-20T06:10:23.747Z,73.86
2023-10-20T06:12:53.056Z,73.81
2023-10-20T06:15:23.182Z,73.81
2023-10-20T06:17:52.430Z,74.61
2023-10-20T06:20:19.924Z,74.39
2023-10-20T06:22:47.049Z,73.63
2023-10-20T06:25:14.436Z,73.91
2023-10-20T06:27:46.348Z,73.63
2023-10-20T06:30:34.035Z,73.85
2023-10-20T06:33:18.006Z,73.47
2023-10-20T06:35:52.432Z,73.51
2023-10-20T06:38:46.278Z,73.94
2023-10-20T06:41:17.214Z,73.72
2023-10-20T06:43:45.494Z,73.56
2023-10-20T06:46:12.422Z,73.57
2023-10-20T06:48:39.487Z,73.81
2023-10-20T06:51:06.357Z,73.29
2023-10-20T06:53:33.281Z,73.26
2023-10-20T06:56:13.965Z,73.21
2023-10-20T06:58:42.658Z,73.57
2023-10-20T07:01:09.635Z,73.67
2023-10-20T07:03:36.768Z,73.12
2023-10-20T07:06:08.389Z,73.19
2023-10-20T07:08:36.045Z,72.91
2023-10-20T07:11:06.274Z,72.95
2023-10-20T07:13:33.580Z,73.16
2023-10-20T07:16:01.645Z,73.43
2023-10-20T07:18:28.756Z,72.83
2023-10-20T07:20:58.539Z,72.47
2023-10-20T07:23:26.342Z,72.36
2023-10-20T07:28:40.942Z,72.04
2023-10-20T07:31:15.891Z,71.64
2023-10-20T07:33:43.072Z,71.85
2023-10-20T07:36:10.248Z,71.79
2023-10-20T07:38:37.596Z,71.93
2023-10-20T07:41:10.855Z,71.69
2023-10-20T07:43:41.427Z,71.64
2023-10-20T07:46:15.087Z,71.16
2023-10-20T07:48:42.074Z,71.44
2023-10-20T07:51:09.213Z,71.63
2023-10-20T07:53:36.261Z,71.58
2023-10-20T07:56:03.987Z,71.25
2023-10-20T07:58:32.706Z,71.26
2023-10-20T08:01:00.305Z,71.01
2023-10-20T08:03:27.737Z,70.61
2023-10-20T08:05:55.123Z,70.73
2023-10-20T08:08:22.350Z,71.61
2023-10-20T08:10:50.576Z,70.74
2023-10-20T08:13:17.672Z,70.77
2023-10-20T08:15:45.009Z,69.79
2023-10-20T08:18:12.157Z,69.74
2023-10-20T08:20:40.264Z,68.41
2023-10-20T08:23:07.235Z,68.01
2023-10-20T08:25:38.766Z,67.77
2023-10-20T08:28:06.349Z,67.64
2023-10-20T08:30:33.225Z,67.24
2023-10-20T08:33:00.642Z,67.12
2023-10-20T08:35:27.838Z,66.32
2023-10-20T08:37:54.770Z,64.36
2023-10-20T08:40:22.231Z,63.20
2023-10-20T08:42:50.313Z,62.40
2023-10-20T08:45:17.246Z,62.55
2023-10-20T08:47:45.564Z,63.37
2023-10-20T08:50:17.202Z,62.86
2023-10-20T08:52:45.855Z,63.53
2023-10-20T08:55:14.510Z,63.14
2023-10-20T08:57:41.581Z,63.12
2023-10-20T09:00:17.287Z,64.19
2023-10-20T09:02:44.225Z,63.83
2023-10-20T09:05:11.459Z,63.95
2023-10-20T09:07:39.209Z,64.52
2023-10-20T09:10:07.123Z,64.81
2023-10-20T09:12:34.455Z,64.95
2023-10-20T09:15:01.362Z,64.24
2023-10-20T09:17:30.073Z,64.84
2023-10-20T09:20:07.667Z,64.24
2023-10-20T09:22:34.765Z,64.45
2023-10-20T09:25:03.605Z,64.91
2023-10-20T09:27:30.788Z,64.30
2023-10-20T09:29:59.462Z,64.07
2023-10-20T09:32:26.532Z,63.55
2023-10-20T09:34:55.844Z,63.46
2023-10-20T09:37:30.188Z,63.44
2023-10-20T09:40:07.361Z,63.50
2023-10-20T09:43:25.030Z,63.46
2023-10-20T09:46:05.058Z,62.38
2023-10-20T09:48:33.829Z,62.15
2023-10-20T09:51:01.201Z,62.61
2023-10-20T09:53:28.299Z,61.53
2023-10-20T09:55:55.920Z,62.97
2023-10-20T09:58:35.041Z,62.92
2023-10-20T10:01:02.075Z,62.99
2023-10-20T10:03:42.100Z,62.63
2023-10-20T10:06:20.552Z,61.34
2023-10-20T10:08:48.900Z,60.99
2023-10-20T10:11:30.558Z,59.69
2023-10-20T10:14:07.841Z,58.50
2023-10-20T10:17:09.385Z,55.67
2023-10-20T10:19:36.465Z,53.49
2023-10-20T10:22:06.363Z,54.48
2023-10-20T10:24:38.001Z,55.28
2023-10-20T10:27:08.007Z,55.40
2023-10-20T10:30:06.677Z,55.35
2023-10-20T10:32:46.088Z,53.11
2023-10-20T10:35:17.895Z,52.47
2023-10-20T10:37:45.296Z,53.06
2023-10-20T10:40:23.638Z,49.05
2023-10-20T10:42:52.430Z,46.82
2023-10-20T10:45:37.330Z,45.22
2023-10-20T10:48:06.900Z,46.50
2023-10-20T10:50:36.764Z,46.02
2023-10-20T10:53:04.125Z,45.92
2023-10-20T10:55:32.297Z,46.33
2023-10-20T10:58:00.989Z,47.35
2023-10-20T11:00:29.344Z,46.81
2023-10-20T11:02:59.005Z,47.30
2023-10-20T11:05:26.746Z,53.52
2023-10-20T11:08:00.184Z,53.61
2023-10-20T11:10:30.285Z,53.74
2023-10-20T11:12:58.409Z,53.94
2023-10-20T11:15:32.215Z,53.58
2023-10-20T11:18:01.770Z,51.79
2023-10-20T11:20:37.556Z,51.41
2023-10-20T11:23:08.178Z,49.06
2023-10-20T11:25:38.705Z,49.85
2023-10-20T11:28:06.155Z,50.63
2023-10-20T11:30:42.826Z,49.02
2023-10-20T11:33:15.979Z,49.27
2023-10-20T11:35:45.038Z,46.83
2023-10-20T11:38:16.346Z,46.85
2023-10-20T11:40:43.403Z,44.03
2023-10-20T11:43:10.257Z,45.20
2023-10-20T11:45:37.116Z,43.63
2023-10-20T11:48:04.437Z,43.92
2023-10-20T11:50:31.544Z,43.05
2023-10-20T11:52:58.498Z,43.01
2023-10-20T11:55:25.476Z,43.05
2023-10-20T11:57:52.353Z,42.23
2023-10-20T12:00:19.211Z,41.71
2023-10-20T12:02:46.208Z,40.88
2023-10-20T12:05:13.140Z,39.19
2023-10-20T12:07:40.017Z,39.54
2023-10-20T12:10:07.764Z,40.63
2023-10-20T12:12:35.677Z,40.91
2023-10-20T12:15:03.841Z,40.08
2023-10-20T12:17:31.035Z,39.39
2023-10-20T12:19:58.141Z,37.94
2023-10-20T12:22:27.482Z,39.44
2023-10-20T12:24:54.691Z,39.73
2023-10-20T12:27:22.381Z,40.74
2023-10-20T12:29:49.700Z,41.45
2023-10-20T12:32:17.349Z,40.84
2023-10-20T12:34:44.607Z,41.05
2023-10-20T12:37:12.057Z,42.25
2023-10-20T12:39:40.864Z,43.04
2023-10-20T12:42:08.616Z,42.04
2023-10-20T12:44:36.395Z,43.85
2023-10-20T12:47:04.310Z,42.66
2023-10-20T12:49:32.885Z,42.40
2023-10-20T12:52:03.607Z,42.39
2023-10-20T12:54:30.959Z,41.38
2023-10-20T12:57:00.100Z,41.54
2023-10-20T12:59:27.417Z,41.49
2023-10-20T13:01:54.528Z,39.62
2023-10-20T13:04:21.828Z,40.55
2023-10-20T13:06:59.152Z,41.47
2023-10-20T13:09:27.308Z,43.05
2023-10-20T13:11:54.357Z,42.83
2023-10-20T13:14:21.453Z,43.95
2023-10-20T13:16:48.530Z,43.62
2023-10-20T13:19:16.480Z,43.70
2023-10-20T13:21:43.969Z,44.09
2023-10-20T13:24:11.119Z,43.16
2023-10-20T13:26:38.742Z,43.90
2023-10-20T13:29:06.946Z,44.05
2023-10-20T13:31:35.013Z,43.66
2023-10-20T13:34:03.543Z,44.48
2023-10-20T13:36:30.454Z,44.60
2023-10-20T13:38:57.331Z,46.08
2023-10-20T13:41:25.073Z,45.49
2023-10-20T13:43:52.826Z,46.34
2023-10-20T13:46:20.247Z,46.33
2023-10-20T13:48:48.099Z,47.52
2023-10-20T13:51:15.133Z,47.28
2023-10-20T13:53:42.111Z,48.56
2023-10-20T13:56:09.052Z,48.15
2023-10-20T13:58:35.948Z,48.06
2023-10-20T14:01:03.881Z,47.74
2023-10-20T14:03:31.123Z,47.34
2023-10-20T14:05:58.345Z,47.22
2023-10-20T14:08:25.799Z,47.24
2023-10-20T14:10:55.116Z,46.52
2023-10-20T14:13:22.090Z,46.49
2023-10-20T14:15:50.563Z,46.41
2023-10-20T14:18:17.822Z,48.32
2023-10-20T14:20:44.971Z,49.20
2023-10-20T14:23:11.922Z,48.97
2023-10-20T14:25:38.822Z,48.65
2023-10-20T14:28:06.821Z,48.58
2023-10-20T14:30:34.258Z,48.96
2023-10-20T14:33:01.379Z,48.38
2023-10-20T14:35:28.495Z,47.60
2023-10-20T14:37:57.278Z,45.59
2023-10-20T14:40:24.120Z,47.00
2023-10-20T14:42:51.021Z,47.26
2023-10-20T14:45:18.161Z,47.95
2023-10-20T14:47:46.985Z,48.53
2023-10-20T14:50:13.851Z,49.79
2023-10-20T14:52:41.435Z,49.04
2023-10-20T14:55:10.418Z,48.46
2023-10-20T14:57:37.575Z,48.10
2023-10-20T15:00:10.927Z,47.14
2023-10-20T15:02:39.825Z,45.81
2023-10-20T15:05:07.956Z,47.78
2023-10-20T15:07:37.447Z,48.71
2023-10-20T15:10:05.499Z,49.15
2023-10-20T15:12:32.573Z,48.81
2023-10-20T15:15:00.676Z,49.69
2023-10-20T15:17:27.915Z,49.97
2023-10-20T15:19:55.066Z,49.27
2023-10-20T15:22:21.972Z,49.93
2023-10-20T15:24:49.761Z,49.97
2023-10-20T15:27:19.458Z,49.61
2023-10-20T15:29:47.011Z,49.80
2023-10-20T15:32:16.451Z,50.81
2023-10-20T15:34:43.380Z,51.48
2023-10-20T15:37:10.287Z,52.40
2023-10-20T15:39:47.982Z,52.17
2023-10-20T15:42:17.721Z,53.53
2023-10-20T15:44:44.672Z,52.96
2023-10-20T15:47:11.604Z,52.62
2023-10-20T15:49:38.472Z,52.41
2023-10-20T15:52:05.363Z,53.24
2023-10-20T15:54:34.848Z,52.47
2023-10-20T15:57:01.980Z,52.85
2023-10-20T15:59:29.293Z,53.42
2023-10-20T16:01:56.222Z,53.94
2023-10-20T16:04:23.779Z,54.01
2023-10-20T16:06:50.809Z,54.19
2023-10-20T16:09:19.857Z,54.76
2023-10-20T16:11:47.176Z,56.29
2023-10-20T16:14:14.166Z,56.00
2023-10-20T16:16:41.245Z,56.99
2023-10-20T16:19:08.141Z,56.74
2023-10-20T16:21:35.067Z,56.81
2023-10-20T16:24:02.025Z,55.84
2023-10-20T16:26:28.951Z,55.40
2023-10-20T16:28:55.858Z,55.53
2023-10-20T16:31:23.120Z,55.08
2023-10-20T16:33:50.204Z,55.25
2023-10-20T16:36:17.109Z,55.28
2023-10-20T16:38:45.454Z,57.51
2023-10-20T16:41:12.389Z,57.03
2023-10-20T16:43:39.244Z,57.75
2023-10-20T16:46:06.394Z,57.94
2023-10-20T16:48:34.783Z,58.28
2023-10-20T16:51:01.750Z,57.91
2023-10-20T16:53:29.664Z,58.38
2023-10-20T16:56:00.889Z,57.74
2023-10-20T16:58:28.285Z,58.19
2023-10-20T17:01:05.715Z,57.43
2023-10-20T17:03:34.526Z,57.39
2023-10-20T17:06:08.382Z,57.66
2023-10-20T17:08:35.463Z,57.87
2023-10-20T17:11:04.606Z,57.87
2023-10-20T17:13:32.792Z,58.06
2023-10-20T17:16:09.185Z,57.70
2023-10-20T17:18:36.592Z,57.74
2023-10-20T17:21:05.385Z,57.85
2023-10-20T17:23:32.746Z,58.39
2023-10-20T17:26:00.200Z,58.17
2023-10-20T17:28:27.402Z,57.18
2023-10-20T17:30:56.001Z,57.82
2023-10-20T17:33:23.249Z,57.02
2023-10-20T17:35:50.294Z,57.07
2023-10-20T17:38:17.246Z,57.67
2023-10-20T17:40:44.125Z,57.62
2023-10-20T17:43:10.989Z,57.05
2023-10-20T17:45:40.109Z,56.82
2023-10-20T17:48:08.733Z,57.26
2023-10-20T17:50:40.006Z,57.58
2023-10-20T17:53:08.782Z,57.80
2023-10-20T17:55:42.168Z,58.31
2023-10-20T17:58:09.870Z,58.39
2023-10-20T18:00:36.803Z,59.11
2023-10-20T18:03:04.205Z,59.17
2023-10-20T18:05:31.718Z,59.22
2023-10-20T18:07:59.403Z,59.54
2023-10-20T18:10:26.425Z,59.44
2023-10-20T18:12:53.275Z,59.54
2023-10-20T18:15:20.161Z,59.28
2023-10-20T18:17:47.058Z,58.40
2023-10-20T18:20:13.956Z,58.28
2023-10-20T18:22:41.372Z,58.59
2023-10-20T18:25:09.570Z,58.97
2023-10-20T18:27:36.993Z,59.21
2023-10-20T18:30:04.453Z,59.47
2023-10-20T18:32:31.394Z,59.88
2023-10-20T18:34:58.276Z,59.73
2023-10-20T18:37:25.100Z,60.24
2023-10-20T18:39:51.931Z,60.19
2023-10-20T18:42:18.906Z,60.08
2023-10-20T18:44:46.066Z,60.04
2023-10-20T18:47:12.914Z,60.57
2023-10-20T18:49:39.827Z,60.47
2023-10-20T18:52:06.909Z,61.59
2023-10-20T18:54:33.810Z,61.49
2023-10-20T18:57:00.759Z,61.46
2023-10-20T18:59:27.720Z,61.54
2023-10-20T19:01:54.622Z,62.33
2023-10-20T19:04:22.270Z,62.29
2023-10-20T19:06:49.352Z,62.51
2023-10-20T19:09:16.207Z,62.91
2023-10-20T19:11:43.137Z,62.42
2023-10-20T19:14:10.014Z,62.72
2023-10-20T19:16:36.877Z,63.80
2023-10-20T19:19:04.165Z,63.89
2023-10-20T19:21:30.980Z,63.86
2023-10-20T19:23:57.915Z,64.59
2023-10-20T19:26:24.795Z,64.77
2023-10-20T19:28:51.982Z,64.85
2023-10-20T19:31:18.823Z,64.93
2023-10-20T19:33:45.782Z,65.64
2023-10-20T19:36:13.031Z,65.04
2023-10-20T19:38:39.981Z,65.80
2023-10-20T19:41:07.929Z,65.34
2023-10-20T19:43:34.874Z,65.55
2023-10-20T19:46:01.740Z,65.85
2023-10-20T19:48:28.688Z,65.64
2023-10-20T19:50:58.175Z,66.21
2023-10-20T19:53:25.221Z,66.28
2023-10-20T19:55:52.056Z,66.33
2023-10-20T19:58:18.974Z,66.64
2023-10-20T20:00:45.865Z,66.27
2023-10-20T20:03:12.931Z,66.52
2023-10-20T20:05:39.920Z,66.31
2023-10-20T20:08:07.203Z,66.14
2023-10-20T20:10:34.192Z,66.22
2023-10-20T20:13:01.158Z,66.92
2023-10-20T20:15:28.071Z,66.73
2023-10-20T20:17:57.672Z,66.79
2023-10-20T20:20:27.549Z,67.08
2023-10-20T20:22:54.437Z,66.55
2023-10-20T20:25:21.372Z,66.56
2023-10-20T20:27:48.246Z,65.44
2023-10-20T20:30:15.269Z,65.17
2023-10-20T20:32:42.487Z,64.98
2023-10-20T20:35:10.007Z,64.08
2023-10-20T20:37:36.911Z,64.31
2023-10-20T20:40:04.482Z,63.75
2023-10-20T20:42:31.983Z,63.39
2023-10-20T20:44:58.920Z,62.97
2023-10-20T20:47:25.912Z,62.55
2023-10-20T20:49:52.879Z,62.67
2023-10-20T20:52:19.762Z,62.71
2023-10-20T20:54:47.522Z,62.44
2023-10-20T20:57:14.431Z,62.85
2023-10-20T20:59:41.316Z,62.11
2023-10-20T21:02:08.172Z,62.37
2023-10-20T21:04:35.122Z,62.77
2023-10-20T21:07:02.253Z,63.44
2023-10-20T21:09:29.144Z,63.88
2023-10-20T21:11:56.108Z,63.16
2023-10-20T21:14:23.024Z,62.99
2023-10-20T21:16:49.946Z,62.95
2023-10-20T21:19:16.810Z,63.16
2023-10-20T21:21:43.670Z,63.18
2023-10-20T21:24:10.626Z,62.37
2023-10-20T21:26:37.607Z,62.37
2023-10-20T21:29:05.333Z,62.65
2023-10-20T21:31:32.439Z,62.85
2023-10-20T21:33:59.311Z,63.30
2023-10-20T21:36:26.175Z,64.40
2023-10-20T21:38:53.172Z,64.53
2023-10-20T21:41:20.034Z,64.74
2023-10-20T21:43:46.922Z,64.79
2023-10-20T21:46:14.367Z,64.60
2023-10-20T21:48:41.471Z,64.66
2023-10-20T21:51:11.896Z,63.93
2023-10-20T21:53:41.954Z,64.08
2023-10-20T21:56:10.532Z,64.15
2023-10-20T21:58:40.611Z,64.04
2023-10-20T22:01:13.189Z,64.28
2023-10-20T22:03:40.526Z,63.92
2023-10-20T22:06:10.840Z,64.17
2023-10-20T22:08:37.947Z,64.38
2023-10-20T22:11:04.890Z,64.42
2023-10-20T22:13:31.788Z,64.97
2023-10-20T22:15:58.732Z,65.23
2023-10-20T22:18:25.751Z,65.52
2023-10-20T22:20:52.802Z,65.62
2023-10-20T22:23:19.908Z,65.59
2023-10-20T22:25:46.768Z,65.90
2023-10-20T22:28:13.638Z,66.39
2023-10-20T22:30:40.528Z,66.72
2023-10-20T22:33:07.507Z,66.94
2023-10-20T22:35:34.424Z,67.46
2023-10-20T22:38:01.912Z,67.26
2023-10-20T22:40:28.733Z,67.76
2023-10-20T22:42:55.672Z,67.53
2023-10-20T22:45:22.503Z,67.57
2023-10-20T22:47:49.456Z,67.97
2023-10-20T22:50:19.412Z,68.11
2023-10-20T22:52:49.877Z,67.94
2023-10-20T22:55:16.804Z,68.21
2023-10-20T22:57:43.696Z,68.07
2023-10-20T23:00:11.680Z,68.21
2023-10-20T23:02:40.010Z,68.54
2023-10-20T23:05:08.745Z,68.81
2023-10-20T23:07:36.015Z,68.78
2023-10-20T23:10:04.830Z,69.28
2023-10-20T23:12:34.678Z,70.12
2023-10-20T23:15:02.069Z,70.79
2023-10-20T23:17:29.120Z,70.61
2023-10-20T23:19:56.669Z,70.12
2023-10-20T23:22:25.418Z,70.17
2023-10-20T23:24:52.344Z,70.19
2023-10-20T23:27:19.295Z,70.02
2023-10-20T23:29:46.276Z,70.02
2023-10-20T23:32:14.152Z,69.81
2023-10-20T23:34:41.076Z,69.75
2023-10-20T23:37:08.787Z,69.77
2023-10-20T23:39:36.855Z,70.20
2023-10-20T23:42:05.233Z,70.37
2023-10-20T23:44:32.665Z,70.17
2023-10-20T23:46:59.540Z,70.49
2023-10-20T23:49:26.535Z,70.29
2023-10-20T23:51:53.437Z,70.14
2023-10-20T23:54:20.384Z,70.15
2023-10-20T23:56:47.541Z,69.94
2023-10-20T23:59:14.430Z,70.51
